createdAt,value
2022-09-28T00:01:27.561Z,10.66
2022-09-28T00:04:00.720Z,10.73
2022-09-28T00:06:33.446Z,10.72
2022-09-28T00:09:11.492Z,10.69
2022-09-28T00:11:48.439Z,10.67
2022-09-28T00:14:22.987Z,10.68
2022-09-28T00:19:42.588Z,10.79
2022-09-28T00:22:24.052Z,10.80
2022-09-28T00:24:53.146Z,10.83
2022-09-28T00:27:32.038Z,10.90
2022-09-28T00:30:09.205Z,10.86
2022-09-28T00:32:41.373Z,10.83
2022-09-28T00:35:19.168Z,10.72
2022-09-28T00:37:50.968Z,10.62
2022-09-28T00:40:25.169Z,10.60
2022-09-28T00:43:01.655Z,10.64
2022-09-28T00:45:34.552Z,10.75
2022-09-28T00:48:16.954Z,10.54
2022-09-28T00:50:47.671Z,10.48
2022-09-28T00:53:33.457Z,10.62
2022-09-28T00:56:16.810Z,10.54
2022-09-28T00:58:55.011Z,10.60
2022-09-28T01:01:28.545Z,10.54
2022-09-28T01:03:59.100Z,10.66
2022-09-28T01:06:36.795Z,10.51
2022-09-28T01:09:18.083Z,10.45
2022-09-28T01:11:49.672Z,10.44
2022-09-28T01:14:23.034Z,10.39
2022-09-28T01:17:19.464Z,10.57
2022-09-28T01:20:15.963Z,10.65
2022-09-28T01:23:17.899Z,10.60
2022-09-28T01:26:04.965Z,10.61
2022-09-28T01:28:35.781Z,10.62
2022-09-28T01:31:26.709Z,10.58
2022-09-28T01:34:17.690Z,10.60
2022-09-28T01:36:58.098Z,10.59
2022-09-28T01:39:49.860Z,10.65
2022-09-28T01:42:31.344Z,10.75
2022-09-28T01:45:10.211Z,10.79
2022-09-28T01:47:41.400Z,10.71
2022-09-28T01:50:16.474Z,10.60
2022-09-28T01:53:12.324Z,10.63
2022-09-28T01:55:51.681Z,10.49
2022-09-28T01:58:48.482Z,10.67
2022-09-28T02:01:55.788Z,10.78
2022-09-28T02:04:52.785Z,10.74
2022-09-28T02:07:30.684Z,10.56
2022-09-28T02:10:07.112Z,10.62
2022-09-28T02:13:02.504Z,10.53
2022-09-28T02:15:46.050Z,10.46
2022-09-28T02:18:24.446Z,10.39
2022-09-28T02:21:14.612Z,10.44
2022-09-28T02:23:59.356Z,10.40
2022-09-28T02:26:35.457Z,10.23
2022-09-28T02:29:05.484Z,10.37
2022-09-28T02:31:37.913Z,10.29
2022-09-28T02:34:10.466Z,10.31
2022-09-28T02:36:47.196Z,10.30
2022-09-28T02:39:25.092Z,10.40
2022-09-28T02:42:51.039Z,10.37
2022-09-28T02:45:52.051Z,10.21
2022-09-28T02:49:35.132Z,10.22
2022-09-28T02:52:37.172Z,9.94
2022-09-28T02:59:03.977Z,9.83
2022-09-28T03:01:44.771Z,9.75
2022-09-28T03:04:54.671Z,9.84
2022-09-28T03:08:31.120Z,9.90
2022-09-28T03:11:09.737Z,9.95
2022-09-28T03:13:44.935Z,9.84
2022-09-28T03:16:25.240Z,9.76
2022-09-28T03:19:06.798Z,9.66
2022-09-28T03:21:40.323Z,9.69
2022-09-28T03:24:24.679Z,9.73
2022-09-28T03:26:55.415Z,9.56
2022-09-28T03:29:24.333Z,9.72
2022-09-28T03:32:05.093Z,9.50
2022-09-28T03:34:37.036Z,9.57
2022-09-28T03:37:07.766Z,9.69
2022-09-28T03:39:40.105Z,9.69
2022-09-28T03:42:11.599Z,9.68
2022-09-28T03:44:48.370Z,9.64
2022-09-28T03:47:19.521Z,9.52
2022-09-28T03:49:55.661Z,9.43
2022-09-28T03:52:25.312Z,9.55
2022-09-28T03:54:56.272Z,9.44
2022-09-28T03:57:25.312Z,9.37
2022-09-28T03:59:56.411Z,9.49
2022-09-28T04:02:26.912Z,9.57
2022-09-28T04:05:18.211Z,9.63
2022-09-28T04:08:05.513Z,9.53
2022-09-28T04:10:46.750Z,9.53
2022-09-28T04:13:20.452Z,9.55
2022-09-28T04:16:00.848Z,9.31
2022-09-28T04:18:41.596Z,9.22
2022-09-28T04:21:38.017Z,9.41
2022-09-28T04:24:19.030Z,9.14
2022-09-28T04:26:49.514Z,8.93
2022-09-28T04:29:23.980Z,9.29
2022-09-28T04:32:04.325Z,9.39
2022-09-28T04:34:48.002Z,9.45
2022-09-28T04:37:34.623Z,9.44
2022-09-28T04:40:16.804Z,9.34
2022-09-28T04:43:00.552Z,9.46
2022-09-28T04:45:35.853Z,9.37
2022-09-28T04:48:14.070Z,9.23
2022-09-28T04:51:17.802Z,9.38
2022-09-28T04:53:52.722Z,9.26
2022-09-28T04:56:26.740Z,9.05
2022-09-28T04:58:58.282Z,9.40
2022-09-28T05:01:33.960Z,9.43
2022-09-28T05:04:29.697Z,9.43
2022-09-28T05:07:25.085Z,9.48
2022-09-28T05:09:55.303Z,9.50
2022-09-28T05:12:35.095Z,9.45
2022-09-28T05:15:21.911Z,9.50
2022-09-28T05:17:57.129Z,9.25
2022-09-28T05:20:53.011Z,9.31
2022-09-28T05:23:25.282Z,9.30
2022-09-28T05:26:03.926Z,9.36
2022-09-28T05:28:36.823Z,9.46
2022-09-28T05:31:40.620Z,9.47
2022-09-28T05:34:43.339Z,9.41
2022-09-28T05:37:19.572Z,9.35
2022-09-28T05:39:58.970Z,9.34
2022-09-28T05:42:27.975Z,9.25
2022-09-28T05:45:09.469Z,9.46
2022-09-28T05:47:48.621Z,9.46
2022-09-28T05:50:25.610Z,9.52
2022-09-28T05:53:16.303Z,9.45
2022-09-28T05:55:48.739Z,9.53
2022-09-28T05:58:23.606Z,9.36
2022-09-28T06:01:02.394Z,9.49
2022-09-28T06:03:36.304Z,9.61
2022-09-28T06:06:13.719Z,9.59
2022-09-28T06:09:00.202Z,9.52
2022-09-28T06:11:48.692Z,9.59
2022-09-28T06:14:42.628Z,9.39
2022-09-28T06:17:12.889Z,9.62
2022-09-28T06:20:01.168Z,9.72
2022-09-28T06:22:52.215Z,9.76
2022-09-28T06:25:23.570Z,9.79
2022-09-28T06:28:11.997Z,9.87
2022-09-28T06:30:45.327Z,9.96
2022-09-28T06:33:23.385Z,9.86
2022-09-28T06:36:06.372Z,9.64
2022-09-28T06:38:38.340Z,9.69
2022-09-28T06:41:09.252Z,9.74
2022-09-28T06:43:42.689Z,9.83
2022-09-28T06:46:15.950Z,10.00
2022-09-28T06:49:04.203Z,10.08
2022-09-28T06:52:26.212Z,10.03
2022-09-28T06:55:37.138Z,10.22
2022-09-28T06:58:10.870Z,10.14
2022-09-28T07:00:43.864Z,10.32
2022-09-28T07:03:31.703Z,10.47
2022-09-28T07:06:24.766Z,10.21
2022-09-28T07:09:32.155Z,10.43
2022-09-28T07:12:07.887Z,10.60
2022-09-28T07:14:57.691Z,10.56
2022-09-28T07:17:56.485Z,10.53
2022-09-28T07:20:46.251Z,10.50
2022-09-28T07:23:49.378Z,10.53
2022-09-28T07:26:33.965Z,10.71
2022-09-28T07:29:30.484Z,10.72
2022-09-28T07:32:28.339Z,10.84
2022-09-28T07:35:20.979Z,10.91
2022-09-28T07:38:08.116Z,10.87
2022-09-28T07:40:55.492Z,10.73
2022-09-28T07:46:23.160Z,10.74
2022-09-28T07:49:11.604Z,10.81
2022-09-28T07:52:05.164Z,10.66
2022-09-28T07:54:43.100Z,10.80
2022-09-28T07:57:33.249Z,10.93
2022-09-28T08:00:33.980Z,10.90
2022-09-28T08:03:07.385Z,10.75
2022-09-28T08:05:45.681Z,10.97
2022-09-28T08:08:14.484Z,10.66
2022-09-28T08:10:53.302Z,10.59
2022-09-28T08:13:50.582Z,10.73
2022-09-28T08:16:51.984Z,10.88
2022-09-28T08:20:05.276Z,11.24
2022-09-28T08:22:35.635Z,11.13
2022-09-28T08:25:10.961Z,11.28
2022-09-28T08:27:39.090Z,11.46
2022-09-28T08:30:08.978Z,11.47
2022-09-28T08:33:15.411Z,11.61
2022-09-28T08:35:51.166Z,11.52
2022-09-28T08:38:25.433Z,11.56
2022-09-28T08:41:27.210Z,11.72
2022-09-28T08:44:26.966Z,11.53
2022-09-28T08:47:46.679Z,11.83
2022-09-28T08:50:38.106Z,11.76
2022-09-28T08:53:55.002Z,11.87
2022-09-28T08:56:55.820Z,12.07
2022-09-28T08:59:36.304Z,12.38
2022-09-28T09:02:19.494Z,12.40
2022-09-28T09:05:15.010Z,12.57
2022-09-28T09:08:20.940Z,12.58
2022-09-28T09:11:07.825Z,12.46
2022-09-28T09:14:22.719Z,12.73
2022-09-28T09:17:43.019Z,12.71
2022-09-28T09:20:43.099Z,12.65
2022-09-28T09:23:40.698Z,12.55
2022-09-28T09:26:26.330Z,12.52
2022-09-28T09:29:47.599Z,12.49
2022-09-28T09:32:50.624Z,12.54
2022-09-28T09:35:59.403Z,12.65
2022-09-28T09:39:03.731Z,12.90
2022-09-28T09:41:52.563Z,13.02
2022-09-28T09:48:38.433Z,12.92
2022-09-28T09:52:00.087Z,12.77
2022-09-28T09:55:06.470Z,12.64
2022-09-28T09:58:06.154Z,12.79
2022-09-28T10:00:50.960Z,13.12
2022-09-28T10:03:46.007Z,13.31
2022-09-28T10:06:44.283Z,13.80
2022-09-28T10:09:29.290Z,13.49
2022-09-28T10:12:12.691Z,13.70
2022-09-28T10:14:43.915Z,13.66
2022-09-28T10:17:17.208Z,13.41
2022-09-28T10:20:05.420Z,13.47
2022-09-28T10:23:30.943Z,13.40
2022-09-28T10:26:07.040Z,13.31
2022-09-28T10:28:44.130Z,13.49
2022-09-28T10:31:58.353Z,13.53
2022-09-28T10:34:51.129Z,13.81
2022-09-28T10:38:05.647Z,14.13
2022-09-28T10:41:31.963Z,14.57
2022-09-28T10:44:20.229Z,14.50
2022-09-28T10:47:49.585Z,14.41
2022-09-28T10:50:28.391Z,14.56
2022-09-28T10:53:21.933Z,14.64
2022-09-28T10:56:08.850Z,14.48
2022-09-28T10:58:49.739Z,14.51
2022-09-28T11:01:36.786Z,15.02
2022-09-28T11:04:10.852Z,15.47
2022-09-28T11:06:44.410Z,15.63
2022-09-28T11:09:44.600Z,15.72
2022-09-28T11:12:21.971Z,16.27
2022-09-28T11:15:02.309Z,16.35
2022-09-28T11:17:42.077Z,16.46
2022-09-28T11:20:36.791Z,16.52
2022-09-28T11:23:33.820Z,17.37
2022-09-28T11:26:34.415Z,17.63
2022-09-28T11:29:04.613Z,17.54
2022-09-28T11:31:49.180Z,17.72
2022-09-28T11:34:59.661Z,17.55
2022-09-28T11:38:10.969Z,18.31
2022-09-28T11:41:02.963Z,18.47
2022-09-28T11:44:20.087Z,17.36
2022-09-28T11:47:39.324Z,17.55
2022-09-28T11:50:58.165Z,16.95
2022-09-28T11:54:04.071Z,16.52
2022-09-28T11:56:52.016Z,16.35
2022-09-28T11:59:32.175Z,16.12
2022-09-28T12:02:22.327Z,15.87
2022-09-28T12:05:20.752Z,15.78
2022-09-28T12:08:26.449Z,15.73
2022-09-28T12:11:24.549Z,15.86
2022-09-28T12:14:25.675Z,15.68
2022-09-28T12:17:16.591Z,15.82
2022-09-28T12:20:21.685Z,16.03
2022-09-28T12:23:39.856Z,15.92
2022-09-28T12:26:31.043Z,15.68
2022-09-28T12:29:15.007Z,15.43
2022-09-28T12:32:03.689Z,15.03
2022-09-28T12:34:35.638Z,15.27
2022-09-28T12:37:51.511Z,15.45
2022-09-28T12:40:41.716Z,15.87
2022-09-28T12:43:29.557Z,16.13
2022-09-28T12:46:28.181Z,16.75
2022-09-28T12:50:33.326Z,16.51
2022-09-28T12:52:30.576Z,16.22
2022-09-28T12:55:41.256Z,15.96
2022-09-28T12:58:48.569Z,15.69
2022-09-28T13:01:40.362Z,15.44
2022-09-28T13:04:27.444Z,15.15
2022-09-28T13:07:33.991Z,15.03
2022-09-28T13:10:44.582Z,14.83
2022-09-28T13:14:07.704Z,14.71
2022-09-28T13:17:05.249Z,14.60
2022-09-28T13:20:19.670Z,14.57
2022-09-28T13:23:41.323Z,14.53
2022-09-28T13:26:41.821Z,14.24
2022-09-28T13:29:18.986Z,14.51
2022-09-28T13:32:03.185Z,14.47
2022-09-28T13:34:41.391Z,14.33
2022-09-28T13:37:17.864Z,14.34
2022-09-28T13:40:01.946Z,14.47
2022-09-28T13:42:51.702Z,14.32
2022-09-28T13:46:03.353Z,14.36
2022-09-28T13:49:04.201Z,14.37
2022-09-28T13:51:52.656Z,14.42
2022-09-28T13:55:07.924Z,14.39
2022-09-28T13:58:02.318Z,14.33
2022-09-28T14:00:51.921Z,14.39
2022-09-28T14:04:04.002Z,14.38
2022-09-28T14:06:37.122Z,14.37
2022-09-28T14:09:42.849Z,14.32
2022-09-28T14:12:45.325Z,14.27
2022-09-28T14:15:51.587Z,14.05
2022-09-28T14:18:40.041Z,14.21
2022-09-28T14:21:54.617Z,14.16
2022-09-28T14:24:44.197Z,14.87
2022-09-28T14:27:50.543Z,15.22
2022-09-28T14:30:45.595Z,15.34
2022-09-28T14:33:34.911Z,15.06
2022-09-28T14:36:45.939Z,14.95
2022-09-28T14:39:52.108Z,14.93
2022-09-28T14:42:31.917Z,14.50
2022-09-28T14:45:16.400Z,14.51
2022-09-28T14:48:07.928Z,14.17
2022-09-28T14:50:39.939Z,14.17
2022-09-28T14:53:19.435Z,14.26
2022-09-28T14:55:53.544Z,14.18
2022-09-28T14:58:28.719Z,14.18
2022-09-28T15:01:15.226Z,14.26
2022-09-28T15:03:53.229Z,14.32
2022-09-28T15:09:46.411Z,14.30
2022-09-28T15:12:36.020Z,14.35
2022-09-28T15:15:23.661Z,14.98
2022-09-28T15:18:17.068Z,15.49
2022-09-28T15:20:56.761Z,15.43
2022-09-28T15:23:41.648Z,14.91
2022-09-28T15:26:38.091Z,14.77
2022-09-28T15:29:18.547Z,14.59
2022-09-28T15:31:58.584Z,14.39
2022-09-28T15:34:56.558Z,14.32
2022-09-28T15:37:40.909Z,14.59
2022-09-28T15:40:24.320Z,14.54
2022-09-28T15:42:58.959Z,14.24
2022-09-28T15:45:45.272Z,14.19
2022-09-28T15:48:34.515Z,14.13
2022-09-28T15:51:15.013Z,13.95
2022-09-28T15:54:08.028Z,13.87
2022-09-28T15:56:57.356Z,13.79
2022-09-28T16:00:02.199Z,13.65
2022-09-28T16:03:08.792Z,13.75
2022-09-28T16:06:10.675Z,13.79
2022-09-28T16:08:49.930Z,13.79
2022-09-28T16:11:46.405Z,13.59
2022-09-28T16:14:27.469Z,13.56
2022-09-28T16:17:03.569Z,13.50
2022-09-28T16:19:40.024Z,13.53
2022-09-28T16:22:28.799Z,13.54
2022-09-28T16:25:03.871Z,13.43
2022-09-28T16:27:45.124Z,13.38
2022-09-28T16:30:34.202Z,13.44
2022-09-28T16:33:10.683Z,13.47
2022-09-28T16:35:44.911Z,13.47
2022-09-28T16:38:19.317Z,13.44
2022-09-28T16:40:57.606Z,13.31
2022-09-28T16:43:38.387Z,13.34
2022-09-28T16:46:13.275Z,13.33
2022-09-28T16:49:01.526Z,13.36
2022-09-28T16:51:31.318Z,13.26
2022-09-28T16:54:42.285Z,13.16
2022-09-28T16:57:16.263Z,13.18
2022-09-28T16:59:46.841Z,13.11
2022-09-28T17:05:23.295Z,12.92
2022-09-28T17:08:07.377Z,12.93
2022-09-28T17:11:02.644Z,13.00
2022-09-28T17:13:37.792Z,12.83
2022-09-28T17:19:35.943Z,12.87
2022-09-28T17:22:14.215Z,12.61
2022-09-28T17:24:46.821Z,12.79
2022-09-28T17:27:27.460Z,12.82
2022-09-28T17:29:58.279Z,12.80
2022-09-28T17:32:33.194Z,12.80
2022-09-28T17:35:23.102Z,12.86
2022-09-28T17:37:53.800Z,12.83
2022-09-28T17:40:37.278Z,12.90
2022-09-28T17:43:07.009Z,12.78
2022-09-28T17:45:52.142Z,12.73
2022-09-28T17:48:30.773Z,12.82
2022-09-28T17:51:07.263Z,12.82
2022-09-28T17:53:38.995Z,12.93
2022-09-28T17:56:13.159Z,12.96
2022-09-28T17:58:44.032Z,12.94
2022-09-28T18:01:30.081Z,12.95
2022-09-28T18:04:05.848Z,12.93
2022-09-28T18:06:46.037Z,12.97
2022-09-28T18:09:30.594Z,13.01
2022-09-28T18:12:05.067Z,13.00
2022-09-28T18:14:36.005Z,13.02
2022-09-28T18:17:07.156Z,12.86
2022-09-28T18:19:43.108Z,12.90
2022-09-28T18:22:16.377Z,12.87
2022-09-28T18:24:48.470Z,12.80
2022-09-28T18:27:19.113Z,12.72
2022-09-28T18:29:49.328Z,12.73
2022-09-28T18:32:27.999Z,12.74
2022-09-28T18:37:51.238Z,12.89
2022-09-28T18:40:22.963Z,12.95
2022-09-28T18:42:55.399Z,12.86
2022-09-28T18:45:33.850Z,12.68
2022-09-28T18:48:07.825Z,12.76
2022-09-28T18:50:37.057Z,12.75
2022-09-28T18:53:14.910Z,12.80
2022-09-28T18:55:47.389Z,12.91
2022-09-28T18:58:21.433Z,12.96
2022-09-28T19:01:25.240Z,12.88
2022-09-28T19:03:50.316Z,12.93
2022-09-28T19:06:37.336Z,12.89
2022-09-28T19:09:08.402Z,12.89
2022-09-28T19:11:41.730Z,12.87
2022-09-28T19:14:21.759Z,12.90
2022-09-28T19:17:02.522Z,12.85
2022-09-28T19:19:40.292Z,12.92
2022-09-28T19:22:12.941Z,12.85
2022-09-28T19:24:44.050Z,13.00
2022-09-28T19:27:15.480Z,12.60
2022-09-28T19:29:49.769Z,13.02
2022-09-28T19:32:20.609Z,13.02
2022-09-28T19:34:53.392Z,12.97
2022-09-28T19:40:12.129Z,12.88
2022-09-28T19:42:43.156Z,12.89
2022-09-28T19:45:13.795Z,12.93
2022-09-28T19:47:49.702Z,12.93
2022-09-28T19:50:28.058Z,12.73
2022-09-28T19:53:02.082Z,12.72
2022-09-28T19:55:37.798Z,12.83
2022-09-28T19:58:07.040Z,12.65
2022-09-28T20:00:45.614Z,12.79
2022-09-28T20:03:21.061Z,12.91
2022-09-28T20:06:01.339Z,12.79
2022-09-28T20:08:32.101Z,12.75
2022-09-28T20:11:06.477Z,12.84
2022-09-28T20:14:01.889Z,12.67
2022-09-28T20:16:44.475Z,12.62
2022-09-28T20:19:21.255Z,12.56
2022-09-28T20:22:01.410Z,12.63
2022-09-28T20:24:38.384Z,12.74
2022-09-28T20:27:11.762Z,12.77
2022-09-28T20:29:48.384Z,12.86
2022-09-28T20:32:18.976Z,12.90
2022-09-28T20:35:04.288Z,12.76
2022-09-28T20:37:36.866Z,12.70
2022-09-28T20:40:14.148Z,12.85
2022-09-28T20:42:45.679Z,12.85
2022-09-28T20:45:14.871Z,12.82
2022-09-28T20:47:45.893Z,12.93
2022-09-28T20:50:17.561Z,12.84
2022-09-28T20:52:48.451Z,13.00
2022-09-28T20:55:21.096Z,13.01
2022-09-28T20:57:50.645Z,12.98
2022-09-28T21:00:20.924Z,12.89
2022-09-28T21:03:00.952Z,12.89
2022-09-28T21:05:40.021Z,12.92
2022-09-28T21:08:14.555Z,12.92
2022-09-28T21:10:57.716Z,12.89
2022-09-28T21:13:29.743Z,12.83
2022-09-28T21:16:03.293Z,13.32
2022-09-28T21:18:35.159Z,13.41
2022-09-28T21:21:16.685Z,13.32
2022-09-28T21:23:49.171Z,13.13
2022-09-28T21:26:35.132Z,13.15
2022-09-28T21:29:13.485Z,12.99
2022-09-28T21:31:58.217Z,12.90
2022-09-28T21:34:43.125Z,12.89
2022-09-28T21:37:13.433Z,12.98
2022-09-28T21:39:47.099Z,12.90
2022-09-28T21:42:26.883Z,12.94
2022-09-28T21:45:01.283Z,13.00
2022-09-28T21:47:31.922Z,13.10
2022-09-28T21:50:05.365Z,13.05
2022-09-28T21:52:36.190Z,13.03
2022-09-28T21:55:08.605Z,12.96
2022-09-28T21:57:40.892Z,12.99
2022-09-28T22:00:14.463Z,12.96
2022-09-28T22:02:45.066Z,12.96
2022-09-28T22:05:30.490Z,13.03
2022-09-28T22:08:01.226Z,13.01
2022-09-28T22:10:34.371Z,12.95
2022-09-28T22:13:05.302Z,12.86
2022-09-28T22:15:33.511Z,12.99
2022-09-28T22:18:07.712Z,12.99
2022-09-28T22:20:52.809Z,12.99
2022-09-28T22:23:27.080Z,13.03
2022-09-28T22:26:15.250Z,12.96
2022-09-28T22:28:53.372Z,12.88
2022-09-28T22:31:36.445Z,12.93
2022-09-28T22:34:17.901Z,12.90
2022-09-28T22:37:00.004Z,12.93
2022-09-28T22:39:37.669Z,12.80
2022-09-28T22:42:10.460Z,13.01
2022-09-28T22:44:39.059Z,12.98
2022-09-28T22:47:12.793Z,12.94
2022-09-28T22:49:43.278Z,12.90
2022-09-28T22:52:15.039Z,12.87
2022-09-28T22:54:52.974Z,12.95
2022-09-28T22:57:25.216Z,12.92
2022-09-28T23:00:03.658Z,12.85
2022-09-28T23:02:43.943Z,12.76
2022-09-28T23:05:17.368Z,12.87
2022-09-28T23:07:56.663Z,12.87
2022-09-28T23:10:27.521Z,12.98
2022-09-28T23:13:03.228Z,13.05
2022-09-28T23:15:42.109Z,13.12
2022-09-28T23:18:13.643Z,13.01
2022-09-28T23:20:46.537Z,12.94
2022-09-28T23:23:18.952Z,12.92
2022-09-28T23:26:03.377Z,12.85
2022-09-28T23:28:33.684Z,13.02
2022-09-28T23:31:19.090Z,13.02
2022-09-28T23:33:55.938Z,13.02
2022-09-28T23:36:26.284Z,12.98
2022-09-28T23:39:07.136Z,13.06
2022-09-28T23:41:41.230Z,13.10
2022-09-28T23:44:12.317Z,13.11
2022-09-28T23:46:46.231Z,13.07
2022-09-28T23:49:17.475Z,13.06
2022-09-28T23:51:55.175Z,12.92
2022-09-28T23:54:35.038Z,13.03
2022-09-28T23:57:08.055Z,13.09
2022-09-28T23:59:41.230Z,13.07
